sensor_id;sensor_type;location;lat;lon;timestamp;temperature;humidity
42099;DHT22;27758;55.900;8.516;2023-03-01T00:01:18;3.90;99.90
42099;DHT22;27758;55.900;8.516;2023-03-01T00:03:44;3.90;99.90
42099;DHT22;27758;55.900;8.516;2023-03-01T00:06:11;3.90;99.90
42099;DHT22;27758;55.900;8.516;2023-03-01T00:08:37;4.00;99.90
42099;DHT22;27758;55.900;8.516;2023-03-01T00:11:06;4.10;99.90
42099;DHT22;27758;55.900;8.516;2023-03-01T00:13:32;4.00;99.90
42099;DHT22;27758;55.900;8.516;2023-03-01T00:15:58;4.00;99.90
42099;DHT22;27758;55.900;8.516;2023-03-01T00:18:24;4.20;99.90
42099;DHT22;27758;55.900;8.516;2023-03-01T00:20:51;4.30;99.90
42099;DHT22;27758;55.900;8.516;2023-03-01T00:23:18;4.30;99.90
42099;DHT22;27758;55.900;8.516;2023-03-01T00:25:43;4.30;99.90
42099;DHT22;27758;55.900;8.516;2023-03-01T00:28:09;4.40;99.90
42099;DHT22;27758;55.900;8.516;2023-03-01T00:30:38;4.40;99.90
42099;DHT22;27758;55.900;8.516;2023-03-01T00:33:03;4.50;99.90
42099;DHT22;27758;55.900;8.516;2023-03-01T00:35:29;4.50;99.90
42099;DHT22;27758;55.900;8.516;2023-03-01T00:37:56;4.40;99.90
42099;DHT22;27758;55.900;8.516;2023-03-01T00:40:29;4.40;99.90
42099;DHT22;27758;55.900;8.516;2023-03-01T00:42:55;4.50;99.90
42099;DHT22;27758;55.900;8.516;2023-03-01T00:45:21;4.50;99.90
42099;DHT22;27758;55.900;8.516;2023-03-01T00:47:48;4.60;99.90
42099;DHT22;27758;55.900;8.516;2023-03-01T00:50:14;4.50;99.90
42099;DHT22;27758;55.900;8.516;2023-03-01T00:52:40;4.60;99.90
42099;DHT22;27758;55.900;8.516;2023-03-01T00:55:06;4.60;99.90
42099;DHT22;27758;55.900;8.516;2023-03-01T00:57:32;4.60;99.90
42099;DHT22;27758;55.900;8.516;2023-03-01T00:59:58;4.70;99.90
42099;DHT22;27758;55.900;8.516;2023-03-01T01:02:24;4.60;99.90
42099;DHT22;27758;55.900;8.516;2023-03-01T01:04:50;4.70;99.90
42099;DHT22;27758;55.900;8.516;2023-03-01T01:07:16;4.70;99.90
42099;DHT22;27758;55.900;8.516;2023-03-01T01:09:42;4.60;99.90
42099;DHT22;27758;55.900;8.516;2023-03-01T01:12:08;4.60;99.90
42099;DHT22;27758;55.900;8.516;2023-03-01T01:14:34;4.60;99.90
42099;DHT22;27758;55.900;8.516;2023-03-01T01:16:59;4.60;99.90
42099;DHT22;27758;55.900;8.516;2023-03-01T01:19:26;4.60;99.90
42099;DHT22;27758;55.900;8.516;2023-03-01T01:21:52;4.60;99.90
42099;DHT22;27758;55.900;8.516;2023-03-01T01:24:18;4.50;99.90
42099;DHT22;27758;55.900;8.516;2023-03-01T01:26:44;4.60;99.90
42099;DHT22;27758;55.900;8.516;2023-03-01T01:29:11;4.60;99.90
42099;DHT22;27758;55.900;8.516;2023-03-01T01:31:38;4.60;99.90
42099;DHT22;27758;55.900;8.516;2023-03-01T01:34:06;4.60;99.90
42099;DHT22;27758;55.900;8.516;2023-03-01T01:36:33;4.60;99.90
42099;DHT22;27758;55.900;8.516;2023-03-01T01:38:59;4.60;99.90
42099;DHT22;27758;55.900;8.516;2023-03-01T01:41:27;4.70;99.90
42099;DHT22;27758;55.900;8.516;2023-03-01T01:44:17;4.70;99.90
42099;DHT22;27758;55.900;8.516;2023-03-01T01:46:46;4.70;99.90
42099;DHT22;27758;55.900;8.516;2023-03-01T01:49:41;4.70;99.90
42099;DHT22;27758;55.900;8.516;2023-03-01T01:54:54;4.60;99.90
42099;DHT22;27758;55.900;8.516;2023-03-01T01:57:30;4.50;99.90
42099;DHT22;27758;55.900;8.516;2023-03-01T02:00:03;4.50;99.90
42099;DHT22;27758;55.900;8.516;2023-03-01T02:02:30;4.60;99.90
42099;DHT22;27758;55.900;8.516;2023-03-01T02:05:03;4.70;99.90
42099;DHT22;27758;55.900;8.516;2023-03-01T02:07:38;4.60;99.90
42099;DHT22;27758;55.900;8.516;2023-03-01T02:10:04;4.60;99.90
42099;DHT22;27758;55.900;8.516;2023-03-01T02:12:31;4.60;99.90
42099;DHT22;27758;55.900;8.516;2023-03-01T02:14:57;4.60;99.90
42099;DHT22;27758;55.900;8.516;2023-03-01T02:17:23;4.60;99.90
42099;DHT22;27758;55.900;8.516;2023-03-01T02:22:39;4.70;99.90
42099;DHT22;27758;55.900;8.516;2023-03-01T02:30:33;4.70;99.90
42099;DHT22;27758;55.900;8.516;2023-03-01T02:33:00;4.70;99.90
42099;DHT22;27758;55.900;8.516;2023-03-01T02:35:30;4.70;99.90
42099;DHT22;27758;55.900;8.516;2023-03-01T02:37:58;4.70;99.90
42099;DHT22;27758;55.900;8.516;2023-03-01T02:40:28;4.60;99.90
42099;DHT22;27758;55.900;8.516;2023-03-01T02:42:56;4.70;99.90
42099;DHT22;27758;55.900;8.516;2023-03-01T02:45:22;4.80;99.90
42099;DHT22;27758;55.900;8.516;2023-03-01T02:47:49;4.70;99.90
42099;DHT22;27758;55.900;8.516;2023-03-01T02:53:14;4.70;99.90
42099;DHT22;27758;55.900;8.516;2023-03-01T02:55:41;4.50;99.90
42099;DHT22;27758;55.900;8.516;2023-03-01T02:58:07;4.50;99.90
42099;DHT22;27758;55.900;8.516;2023-03-01T03:00:36;4.60;99.90
42099;DHT22;27758;55.900;8.516;2023-03-01T03:03:06;4.60;99.90
42099;DHT22;27758;55.900;8.516;2023-03-01T03:05:33;4.50;99.90
42099;DHT22;27758;55.900;8.516;2023-03-01T03:08:00;4.60;99.90
42099;DHT22;27758;55.900;8.516;2023-03-01T03:10:33;4.60;99.90
42099;DHT22;27758;55.900;8.516;2023-03-01T03:13:02;4.60;99.90
42099;DHT22;27758;55.900;8.516;2023-03-01T03:15:28;4.60;99.90
42099;DHT22;27758;55.900;8.516;2023-03-01T03:17:56;4.70;99.90
42099;DHT22;27758;55.900;8.516;2023-03-01T03:20:25;4.80;99.90
42099;DHT22;27758;55.900;8.516;2023-03-01T03:22:52;4.80;99.90
42099;DHT22;27758;55.900;8.516;2023-03-01T03:25:19;4.80;99.90
42099;DHT22;27758;55.900;8.516;2023-03-01T03:27:47;4.80;99.90
42099;DHT22;27758;55.900;8.516;2023-03-01T03:30:16;4.70;99.90
42099;DHT22;27758;55.900;8.516;2023-03-01T03:32:44;4.60;99.90
42099;DHT22;27758;55.900;8.516;2023-03-01T03:35:19;4.70;99.90
42099;DHT22;27758;55.900;8.516;2023-03-01T03:37:45;4.60;99.90
42099;DHT22;27758;55.900;8.516;2023-03-01T03:43:00;4.60;99.90
42099;DHT22;27758;55.900;8.516;2023-03-01T03:45:26;4.60;99.90
42099;DHT22;27758;55.900;8.516;2023-03-01T03:47:52;4.60;99.90
42099;DHT22;27758;55.900;8.516;2023-03-01T03:50:18;4.60;99.90
42099;DHT22;27758;55.900;8.516;2023-03-01T03:52:44;4.60;99.90
42099;DHT22;27758;55.900;8.516;2023-03-01T03:55:11;4.60;99.90
42099;DHT22;27758;55.900;8.516;2023-03-01T03:57:38;4.70;99.90
42099;DHT22;27758;55.900;8.516;2023-03-01T04:00:06;4.80;99.90
42099;DHT22;27758;55.900;8.516;2023-03-01T04:02:42;4.60;99.90
42099;DHT22;27758;55.900;8.516;2023-03-01T04:05:10;4.40;99.90
42099;DHT22;27758;55.900;8.516;2023-03-01T04:07:37;4.40;99.90
42099;DHT22;27758;55.900;8.516;2023-03-01T04:10:05;4.60;99.90
42099;DHT22;27758;55.900;8.516;2023-03-01T04:12:32;4.60;99.90
42099;DHT22;27758;55.900;8.516;2023-03-01T04:15:00;4.60;99.90
42099;DHT22;27758;55.900;8.516;2023-03-01T04:17:26;4.70;99.90
42099;DHT22;27758;55.900;8.516;2023-03-01T04:19:51;4.70;99.90
42099;DHT22;27758;55.900;8.516;2023-03-01T04:22:17;4.60;99.90
42099;DHT22;27758;55.900;8.516;2023-03-01T04:24:44;4.60;99.90
42099;DHT22;27758;55.900;8.516;2023-03-01T04:27:11;4.60;99.90
42099;DHT22;27758;55.900;8.516;2023-03-01T04:29:37;4.50;99.90
42099;DHT22;27758;55.900;8.516;2023-03-01T04:32:03;4.30;99.90
42099;DHT22;27758;55.900;8.516;2023-03-01T04:34:30;4.40;99.90
42099;DHT22;27758;55.900;8.516;2023-03-01T04:36:56;4.40;99.90
42099;DHT22;27758;55.900;8.516;2023-03-01T04:39:21;4.50;99.90
42099;DHT22;27758;55.900;8.516;2023-03-01T04:41:47;4.50;99.90
42099;DHT22;27758;55.900;8.516;2023-03-01T04:44:13;4.60;99.90
42099;DHT22;27758;55.900;8.516;2023-03-01T04:46:39;4.50;99.90
42099;DHT22;27758;55.900;8.516;2023-03-01T04:49:04;4.50;99.90
42099;DHT22;27758;55.900;8.516;2023-03-01T04:51:30;4.60;99.90
42099;DHT22;27758;55.900;8.516;2023-03-01T04:53:58;4.60;99.90
42099;DHT22;27758;55.900;8.516;2023-03-01T04:56:24;4.50;99.90
42099;DHT22;27758;55.900;8.516;2023-03-01T04:58:52;4.50;99.90
42099;DHT22;27758;55.900;8.516;2023-03-01T05:01:19;4.40;99.90
42099;DHT22;27758;55.900;8.516;2023-03-01T05:03:50;4.40;99.90
42099;DHT22;27758;55.900;8.516;2023-03-01T05:06:17;4.40;99.90
42099;DHT22;27758;55.900;8.516;2023-03-01T05:08:43;4.40;99.90
42099;DHT22;27758;55.900;8.516;2023-03-01T05:11:10;4.40;99.90
42099;DHT22;27758;55.900;8.516;2023-03-01T05:13:37;4.40;99.90
42099;DHT22;27758;55.900;8.516;2023-03-01T05:16:04;4.50;99.90
42099;DHT22;27758;55.900;8.516;2023-03-01T05:18:32;4.40;99.90
42099;DHT22;27758;55.900;8.516;2023-03-01T05:21:10;4.30;99.90
42099;DHT22;27758;55.900;8.516;2023-03-01T05:23:36;4.40;99.90
42099;DHT22;27758;55.900;8.516;2023-03-01T05:26:03;4.40;99.90
42099;DHT22;27758;55.900;8.516;2023-03-01T05:28:30;4.40;99.90
42099;DHT22;27758;55.900;8.516;2023-03-01T05:30:56;4.40;99.90
42099;DHT22;27758;55.900;8.516;2023-03-01T05:33:22;4.30;99.90
42099;DHT22;27758;55.900;8.516;2023-03-01T05:35:49;4.30;99.90
42099;DHT22;27758;55.900;8.516;2023-03-01T05:38:15;4.20;99.90
42099;DHT22;27758;55.900;8.516;2023-03-01T05:40:43;4.20;99.90
42099;DHT22;27758;55.900;8.516;2023-03-01T05:43:10;4.20;99.90
42099;DHT22;27758;55.900;8.516;2023-03-01T05:45:37;4.20;99.90
42099;DHT22;27758;55.900;8.516;2023-03-01T05:48:04;4.00;99.90
42099;DHT22;27758;55.900;8.516;2023-03-01T05:50:33;3.90;99.90
42099;DHT22;27758;55.900;8.516;2023-03-01T05:53:05;3.90;99.90
42099;DHT22;27758;55.900;8.516;2023-03-01T05:55:32;3.90;99.90
42099;DHT22;27758;55.900;8.516;2023-03-01T05:57:59;4.00;99.90
42099;DHT22;27758;55.900;8.516;2023-03-01T06:00:27;4.00;99.90
42099;DHT22;27758;55.900;8.516;2023-03-01T06:02:54;4.00;99.90
42099;DHT22;27758;55.900;8.516;2023-03-01T06:05:20;4.10;99.90
42099;DHT22;27758;55.900;8.516;2023-03-01T06:07:46;4.10;99.90
42099;DHT22;27758;55.900;8.516;2023-03-01T06:10:13;4.00;99.90
42099;DHT22;27758;55.900;8.516;2023-03-01T06:12:41;4.10;99.90
42099;DHT22;27758;55.900;8.516;2023-03-01T06:15:08;4.30;99.90
42099;DHT22;27758;55.900;8.516;2023-03-01T06:17:38;4.20;99.90
42099;DHT22;27758;55.900;8.516;2023-03-01T06:20:06;4.30;99.90
42099;DHT22;27758;55.900;8.516;2023-03-01T06:22:32;4.20;99.90
42099;DHT22;27758;55.900;8.516;2023-03-01T06:24:58;4.30;99.90
42099;DHT22;27758;55.900;8.516;2023-03-01T06:27:24;4.20;99.90
42099;DHT22;27758;55.900;8.516;2023-03-01T06:29:49;4.10;99.90
42099;DHT22;27758;55.900;8.516;2023-03-01T06:32:15;4.10;99.90
42099;DHT22;27758;55.900;8.516;2023-03-01T06:34:41;4.00;99.90
42099;DHT22;27758;55.900;8.516;2023-03-01T06:37:07;4.10;99.90
42099;DHT22;27758;55.900;8.516;2023-03-01T06:39:33;4.00;99.90
42099;DHT22;27758;55.900;8.516;2023-03-01T06:41:59;3.90;99.90
42099;DHT22;27758;55.900;8.516;2023-03-01T06:44:25;3.90;99.90
42099;DHT22;27758;55.900;8.516;2023-03-01T06:46:51;4.00;99.90
42099;DHT22;27758;55.900;8.516;2023-03-01T06:49:17;4.10;99.90
42099;DHT22;27758;55.900;8.516;2023-03-01T06:51:43;4.20;99.90
42099;DHT22;27758;55.900;8.516;2023-03-01T06:54:09;4.20;99.90
42099;DHT22;27758;55.900;8.516;2023-03-01T06:56:35;4.10;99.90
42099;DHT22;27758;55.900;8.516;2023-03-01T06:59:01;4.10;99.90
42099;DHT22;27758;55.900;8.516;2023-03-01T07:01:28;4.00;99.90
42099;DHT22;27758;55.900;8.516;2023-03-01T07:03:54;3.90;99.90
42099;DHT22;27758;55.900;8.516;2023-03-01T07:06:21;3.90;99.90
42099;DHT22;27758;55.900;8.516;2023-03-01T07:08:48;3.90;99.90
42099;DHT22;27758;55.900;8.516;2023-03-01T07:11:14;3.80;99.90
42099;DHT22;27758;55.900;8.516;2023-03-01T07:13:40;3.80;99.90
42099;DHT22;27758;55.900;8.516;2023-03-01T07:16:06;3.70;99.90
42099;DHT22;27758;55.900;8.516;2023-03-01T07:18:32;3.90;99.90
42099;DHT22;27758;55.900;8.516;2023-03-01T07:20:57;4.00;99.90
42099;DHT22;27758;55.900;8.516;2023-03-01T07:23:23;4.10;99.90
42099;DHT22;27758;55.900;8.516;2023-03-01T07:25:55;4.00;99.90
42099;DHT22;27758;55.900;8.516;2023-03-01T07:28:23;4.00;99.90
42099;DHT22;27758;55.900;8.516;2023-03-01T07:30:48;4.00;99.90
42099;DHT22;27758;55.900;8.516;2023-03-01T07:33:14;4.00;99.90
42099;DHT22;27758;55.900;8.516;2023-03-01T07:35:40;4.00;99.90
42099;DHT22;27758;55.900;8.516;2023-03-01T07:38:06;4.00;99.90
42099;DHT22;27758;55.900;8.516;2023-03-01T07:40:31;4.10;99.90
42099;DHT22;27758;55.900;8.516;2023-03-01T07:42:58;4.00;99.90
42099;DHT22;27758;55.900;8.516;2023-03-01T07:45:25;4.00;99.90
42099;DHT22;27758;55.900;8.516;2023-03-01T07:47:52;4.10;99.90
42099;DHT22;27758;55.900;8.516;2023-03-01T07:50:20;4.10;99.90
42099;DHT22;27758;55.900;8.516;2023-03-01T07:52:47;4.10;99.90
42099;DHT22;27758;55.900;8.516;2023-03-01T07:55:14;4.10;99.90
42099;DHT22;27758;55.900;8.516;2023-03-01T07:57:39;4.20;99.90
42099;DHT22;27758;55.900;8.516;2023-03-01T08:00:06;4.10;99.90
42099;DHT22;27758;55.900;8.516;2023-03-01T08:02:32;4.30;99.90
42099;DHT22;27758;55.900;8.516;2023-03-01T08:04:58;4.30;99.90
42099;DHT22;27758;55.900;8.516;2023-03-01T08:07:24;4.20;99.90
42099;DHT22;27758;55.900;8.516;2023-03-01T08:09:49;4.20;99.90
42099;DHT22;27758;55.900;8.516;2023-03-01T08:12:15;4.20;99.90
42099;DHT22;27758;55.900;8.516;2023-03-01T08:14:42;4.30;99.90
42099;DHT22;27758;55.900;8.516;2023-03-01T08:17:08;4.30;99.90
42099;DHT22;27758;55.900;8.516;2023-03-01T08:19:34;4.40;99.90
42099;DHT22;27758;55.900;8.516;2023-03-01T08:22:02;4.30;99.90
42099;DHT22;27758;55.900;8.516;2023-03-01T08:24:28;4.40;99.90
42099;DHT22;27758;55.900;8.516;2023-03-01T08:26:54;4.40;99.90
42099;DHT22;27758;55.900;8.516;2023-03-01T08:29:20;4.20;99.90
42099;DHT22;27758;55.900;8.516;2023-03-01T08:31:46;4.00;99.90
42099;DHT22;27758;55.900;8.516;2023-03-01T08:34:15;4.10;99.90
42099;DHT22;27758;55.900;8.516;2023-03-01T08:36:43;4.00;99.90
42099;DHT22;27758;55.900;8.516;2023-03-01T08:39:11;4.10;99.90
42099;DHT22;27758;55.900;8.516;2023-03-01T08:41:37;4.20;99.90
42099;DHT22;27758;55.900;8.516;2023-03-01T08:44:05;4.30;99.90
42099;DHT22;27758;55.900;8.516;2023-03-01T08:46:34;4.40;99.90
42099;DHT22;27758;55.900;8.516;2023-03-01T08:49:04;4.40;99.90
42099;DHT22;27758;55.900;8.516;2023-03-01T08:51:30;4.30;99.90
42099;DHT22;27758;55.900;8.516;2023-03-01T08:53:58;4.20;99.90
42099;DHT22;27758;55.900;8.516;2023-03-01T08:56:23;4.40;99.90
42099;DHT22;27758;55.900;8.516;2023-03-01T08:58:49;4.30;99.90
42099;DHT22;27758;55.900;8.516;2023-03-01T09:01:17;4.10;99.90
42099;DHT22;27758;55.900;8.516;2023-03-01T09:03:44;4.10;99.90
42099;DHT22;27758;55.900;8.516;2023-03-01T09:06:11;4.30;99.90
42099;DHT22;27758;55.900;8.516;2023-03-01T09:08:42;4.50;99.90
42099;DHT22;27758;55.900;8.516;2023-03-01T09:11:10;4.60;99.90
42099;DHT22;27758;55.900;8.516;2023-03-01T09:13:36;4.60;99.90
42099;DHT22;27758;55.900;8.516;2023-03-01T09:16:04;4.60;99.90
42099;DHT22;27758;55.900;8.516;2023-03-01T09:18:30;4.60;99.90
42099;DHT22;27758;55.900;8.516;2023-03-01T09:21:11;4.60;99.90
42099;DHT22;27758;55.900;8.516;2023-03-01T09:23:39;4.70;99.90
42099;DHT22;27758;55.900;8.516;2023-03-01T09:26:06;4.60;99.90
42099;DHT22;27758;55.900;8.516;2023-03-01T09:28:32;4.70;99.90
42099;DHT22;27758;55.900;8.516;2023-03-01T09:31:00;4.60;99.90
42099;DHT22;27758;55.900;8.516;2023-03-01T09:33:28;4.70;99.90
42099;DHT22;27758;55.900;8.516;2023-03-01T09:36:05;4.70;99.90
42099;DHT22;27758;55.900;8.516;2023-03-01T09:38:32;4.80;99.90
42099;DHT22;27758;55.900;8.516;2023-03-01T09:41:00;4.80;99.90
42099;DHT22;27758;55.900;8.516;2023-03-01T09:43:45;4.90;99.90
42099;DHT22;27758;55.900;8.516;2023-03-01T09:46:13;4.90;99.90
42099;DHT22;27758;55.900;8.516;2023-03-01T09:48:56;4.80;99.90
42099;DHT22;27758;55.900;8.516;2023-03-01T09:51:34;4.90;99.90
42099;DHT22;27758;55.900;8.516;2023-03-01T09:54:04;4.90;99.90
42099;DHT22;27758;55.900;8.516;2023-03-01T09:56:44;4.80;99.90
42099;DHT22;27758;55.900;8.516;2023-03-01T09:59:20;5.00;99.90
42099;DHT22;27758;55.900;8.516;2023-03-01T10:04:46;5.00;99.90
42099;DHT22;27758;55.900;8.516;2023-03-01T10:07:26;5.00;99.90
42099;DHT22;27758;55.900;8.516;2023-03-01T10:09:53;5.00;99.90
42099;DHT22;27758;55.900;8.516;2023-03-01T10:12:34;5.10;99.90
42099;DHT22;27758;55.900;8.516;2023-03-01T10:15:24;4.90;99.90
42099;DHT22;27758;55.900;8.516;2023-03-01T10:18:04;5.00;99.90
42099;DHT22;27758;55.900;8.516;2023-03-01T10:20:52;5.10;99.90
42099;DHT22;27758;55.900;8.516;2023-03-01T10:23:19;5.20;99.90
42099;DHT22;27758;55.900;8.516;2023-03-01T10:26:01;5.20;99.90
42099;DHT22;27758;55.900;8.516;2023-03-01T10:29:04;5.30;99.90
42099;DHT22;27758;55.900;8.516;2023-03-01T10:31:43;5.20;99.90
42099;DHT22;27758;55.900;8.516;2023-03-01T10:34:36;5.30;99.90
42099;DHT22;27758;55.900;8.516;2023-03-01T10:39:35;5.60;99.90
42099;DHT22;27758;55.900;8.516;2023-03-01T10:42:05;5.60;99.90
42099;DHT22;27758;55.900;8.516;2023-03-01T10:44:49;5.50;99.90
42099;DHT22;27758;55.900;8.516;2023-03-01T10:50:18;5.50;99.90
42099;DHT22;27758;55.900;8.516;2023-03-01T10:52:59;5.50;99.90
42099;DHT22;27758;55.900;8.516;2023-03-01T10:55:35;5.50;99.90
42099;DHT22;27758;55.900;8.516;2023-03-01T11:00:59;5.50;99.90
42099;DHT22;27758;55.900;8.516;2023-03-01T11:03:32;5.70;99.90
42099;DHT22;27758;55.900;8.516;2023-03-01T11:08:45;5.60;99.90
42099;DHT22;27758;55.900;8.516;2023-03-01T11:14:00;5.80;99.90
42099;DHT22;27758;55.900;8.516;2023-03-01T11:16:34;5.70;99.90
42099;DHT22;27758;55.900;8.516;2023-03-01T11:24:14;5.70;99.90
42099;DHT22;27758;55.900;8.516;2023-03-01T11:26:44;5.60;99.90
42099;DHT22;27758;55.900;8.516;2023-03-01T11:29:43;5.70;99.90
42099;DHT22;27758;55.900;8.516;2023-03-01T11:32:11;5.90;99.90
42099;DHT22;27758;55.900;8.516;2023-03-01T11:34:58;6.00;99.90
42099;DHT22;27758;55.900;8.516;2023-03-01T11:40:34;5.90;99.90
42099;DHT22;27758;55.900;8.516;2023-03-01T11:43:37;5.80;99.90
42099;DHT22;27758;55.900;8.516;2023-03-01T11:49:31;6.00;99.90
42099;DHT22;27758;55.900;8.516;2023-03-01T11:52:09;6.10;99.90
42099;DHT22;27758;55.900;8.516;2023-03-01T12:08:36;6.00;99.90
42099;DHT22;27758;55.900;8.516;2023-03-01T12:14:38;6.10;99.90
42099;DHT22;27758;55.900;8.516;2023-03-01T12:20:20;6.20;99.90
42099;DHT22;27758;55.900;8.516;2023-03-01T12:31:35;6.20;99.90
42099;DHT22;27758;55.900;8.516;2023-03-01T12:39:52;6.20;99.90
42099;DHT22;27758;55.900;8.516;2023-03-01T12:43:27;6.30;99.90
42099;DHT22;27758;55.900;8.516;2023-03-01T12:45:48;6.20;99.90
42099;DHT22;27758;55.900;8.516;2023-03-01T12:48:40;6.00;99.90
42099;DHT22;27758;55.900;8.516;2023-03-01T12:51:14;5.80;99.90
42099;DHT22;27758;55.900;8.516;2023-03-01T12:53:47;5.80;99.90
42099;DHT22;27758;55.900;8.516;2023-03-01T12:56:24;6.00;99.90
42099;DHT22;27758;55.900;8.516;2023-03-01T13:02:02;5.90;99.90
42099;DHT22;27758;55.900;8.516;2023-03-01T13:05:07;6.10;99.90
42099;DHT22;27758;55.900;8.516;2023-03-01T13:07:50;6.10;99.90
42099;DHT22;27758;55.900;8.516;2023-03-01T13:10:31;6.10;99.90
42099;DHT22;27758;55.900;8.516;2023-03-01T13:13:20;6.20;99.90
42099;DHT22;27758;55.900;8.516;2023-03-01T13:15:46;6.50;99.90
42099;DHT22;27758;55.900;8.516;2023-03-01T13:23:34;7.20;99.90
42099;DHT22;27758;55.900;8.516;2023-03-01T13:31:03;7.40;99.90
42099;DHT22;27758;55.900;8.516;2023-03-01T13:35:57;7.50;99.90
42099;DHT22;27758;55.900;8.516;2023-03-01T13:46:52;9.20;99.90
42099;DHT22;27758;55.900;8.516;2023-03-01T13:49:23;9.20;99.90
42099;DHT22;27758;55.900;8.516;2023-03-01T13:51:51;9.00;99.90
42099;DHT22;27758;55.900;8.516;2023-03-01T13:54:29;8.70;99.90
42099;DHT22;27758;55.900;8.516;2023-03-01T13:56:58;8.30;99.90
42099;DHT22;27758;55.900;8.516;2023-03-01T13:59:24;8.00;99.90
42099;DHT22;27758;55.900;8.516;2023-03-01T14:01:56;8.20;99.90
42099;DHT22;27758;55.900;8.516;2023-03-01T14:04:27;8.40;99.90
42099;DHT22;27758;55.900;8.516;2023-03-01T14:07:10;8.60;99.90
42099;DHT22;27758;55.900;8.516;2023-03-01T14:09:40;9.20;99.90
42099;DHT22;27758;55.900;8.516;2023-03-01T14:15:13;9.80;99.90
42099;DHT22;27758;55.900;8.516;2023-03-01T14:22:42;10.20;99.90
42099;DHT22;27758;55.900;8.516;2023-03-01T14:25:19;10.20;99.90
42099;DHT22;27758;55.900;8.516;2023-03-01T14:27:57;10.50;99.90
42099;DHT22;27758;55.900;8.516;2023-03-01T14:30:43;10.40;99.90
42099;DHT22;27758;55.900;8.516;2023-03-01T14:36:03;9.70;99.90
42099;DHT22;27758;55.900;8.516;2023-03-01T14:41:11;10.50;99.90
42099;DHT22;27758;55.900;8.516;2023-03-01T14:43:43;10.80;99.90
42099;DHT22;27758;55.900;8.516;2023-03-01T14:46:34;11.00;99.90
42099;DHT22;27758;55.900;8.516;2023-03-01T14:51:29;11.00;99.90
42099;DHT22;27758;55.900;8.516;2023-03-01T14:53:56;11.20;99.90
42099;DHT22;27758;55.900;8.516;2023-03-01T14:56:22;11.40;99.90
42099;DHT22;27758;55.900;8.516;2023-03-01T14:58:52;11.60;99.90
42099;DHT22;27758;55.900;8.516;2023-03-01T15:01:18;11.60;99.90
42099;DHT22;27758;55.900;8.516;2023-03-01T15:03:49;11.70;99.90
42099;DHT22;27758;55.900;8.516;2023-03-01T15:06:20;11.80;99.90
42099;DHT22;27758;55.900;8.516;2023-03-01T15:08:49;11.70;99.90
42099;DHT22;27758;55.900;8.516;2023-03-01T15:11:36;11.80;99.90
42099;DHT22;27758;55.900;8.516;2023-03-01T15:14:26;11.80;99.90
42099;DHT22;27758;55.900;8.516;2023-03-01T15:16:52;11.80;99.90
42099;DHT22;27758;55.900;8.516;2023-03-01T15:19:18;11.70;99.90
42099;DHT22;27758;55.900;8.516;2023-03-01T15:21:46;11.50;99.90
42099;DHT22;27758;55.900;8.516;2023-03-01T15:29:24;11.30;99.90
42099;DHT22;27758;55.900;8.516;2023-03-01T15:34:36;11.00;99.90
42099;DHT22;27758;55.900;8.516;2023-03-01T15:37:15;10.90;99.90
42099;DHT22;27758;55.900;8.516;2023-03-01T15:39:55;10.80;99.90
42099;DHT22;27758;55.900;8.516;2023-03-01T15:47:34;10.60;99.90
42099;DHT22;27758;55.900;8.516;2023-03-01T15:50:01;10.10;99.90
42099;DHT22;27758;55.900;8.516;2023-03-01T15:52:35;9.70;99.90
42099;DHT22;27758;55.900;8.516;2023-03-01T15:55:26;9.40;99.90
42099;DHT22;27758;55.900;8.516;2023-03-01T15:58:00;9.00;99.90
42099;DHT22;27758;55.900;8.516;2023-03-01T16:00:27;8.70;99.90
42099;DHT22;27758;55.900;8.516;2023-03-01T16:02:52;8.30;99.90
42099;DHT22;27758;55.900;8.516;2023-03-01T16:05:21;8.00;99.90
42099;DHT22;27758;55.900;8.516;2023-03-01T16:07:49;7.70;99.90
42099;DHT22;27758;55.900;8.516;2023-03-01T16:10:15;7.50;99.90
42099;DHT22;27758;55.900;8.516;2023-03-01T16:12:41;7.30;99.90
42099;DHT22;27758;55.900;8.516;2023-03-01T16:15:28;7.10;99.90
42099;DHT22;27758;55.900;8.516;2023-03-01T16:17:54;7.00;99.90
42099;DHT22;27758;55.900;8.516;2023-03-01T16:20:20;6.90;99.90
42099;DHT22;27758;55.900;8.516;2023-03-01T16:22:46;6.90;99.90
42099;DHT22;27758;55.900;8.516;2023-03-01T16:25:14;6.80;99.90
42099;DHT22;27758;55.900;8.516;2023-03-01T16:27:43;6.70;99.90
42099;DHT22;27758;55.900;8.516;2023-03-01T16:30:11;6.60;99.90
42099;DHT22;27758;55.900;8.516;2023-03-01T16:32:38;6.50;99.90
42099;DHT22;27758;55.900;8.516;2023-03-01T16:35:05;6.40;99.90
42099;DHT22;27758;55.900;8.516;2023-03-01T16:37:32;6.30;99.90
42099;DHT22;27758;55.900;8.516;2023-03-01T16:39:58;6.20;99.90
42099;DHT22;27758;55.900;8.516;2023-03-01T16:42:24;6.10;99.90
42099;DHT22;27758;55.900;8.516;2023-03-01T16:44:56;6.10;99.90
42099;DHT22;27758;55.900;8.516;2023-03-01T16:47:22;6.00;99.90
42099;DHT22;27758;55.900;8.516;2023-03-01T16:49:52;5.80;99.90
42099;DHT22;27758;55.900;8.516;2023-03-01T16:52:18;5.80;99.90
42099;DHT22;27758;55.900;8.516;2023-03-01T16:54:44;5.60;99.90
42099;DHT22;27758;55.900;8.516;2023-03-01T16:57:10;5.60;99.90
42099;DHT22;27758;55.900;8.516;2023-03-01T16:59:36;5.40;99.90
42099;DHT22;27758;55.900;8.516;2023-03-01T17:02:08;5.30;99.90
42099;DHT22;27758;55.900;8.516;2023-03-01T17:04:36;5.20;99.90
42099;DHT22;27758;55.900;8.516;2023-03-01T17:07:02;5.10;99.90
42099;DHT22;27758;55.900;8.516;2023-03-01T17:09:28;5.10;99.90
42099;DHT22;27758;55.900;8.516;2023-03-01T17:11:54;5.00;99.90
42099;DHT22;27758;55.900;8.516;2023-03-01T17:14:20;5.00;99.90
42099;DHT22;27758;55.900;8.516;2023-03-01T17:16:46;4.90;99.90
42099;DHT22;27758;55.900;8.516;2023-03-01T17:19:12;4.80;99.90
42099;DHT22;27758;55.900;8.516;2023-03-01T17:21:43;4.70;99.90
42099;DHT22;27758;55.900;8.516;2023-03-01T17:24:10;4.70;99.90
42099;DHT22;27758;55.900;8.516;2023-03-01T17:26:35;4.70;99.90
42099;DHT22;27758;55.900;8.516;2023-03-01T17:29:02;4.70;99.90
42099;DHT22;27758;55.900;8.516;2023-03-01T17:31:30;4.60;99.90
42099;DHT22;27758;55.900;8.516;2023-03-01T17:33:56;4.60;99.90
42099;DHT22;27758;55.900;8.516;2023-03-01T17:36:22;4.60;99.90
42099;DHT22;27758;55.900;8.516;2023-03-01T17:38:48;4.60;99.90
42099;DHT22;27758;55.900;8.516;2023-03-01T17:41:14;4.60;99.90
42099;DHT22;27758;55.900;8.516;2023-03-01T17:43:43;4.50;99.90
42099;DHT22;27758;55.900;8.516;2023-03-01T17:46:09;4.40;99.90
42099;DHT22;27758;55.900;8.516;2023-03-01T17:48:36;4.30;99.90
42099;DHT22;27758;55.900;8.516;2023-03-01T17:51:05;4.30;99.90
42099;DHT22;27758;55.900;8.516;2023-03-01T17:53:31;4.20;99.90
42099;DHT22;27758;55.900;8.516;2023-03-01T17:56:02;4.10;99.90
42099;DHT22;27758;55.900;8.516;2023-03-01T17:58:29;4.10;99.90
42099;DHT22;27758;55.900;8.516;2023-03-01T18:00:55;4.10;99.90
42099;DHT22;27758;55.900;8.516;2023-03-01T18:03:21;4.00;99.90
42099;DHT22;27758;55.900;8.516;2023-03-01T18:05:47;3.80;99.90
42099;DHT22;27758;55.900;8.516;2023-03-01T18:08:13;3.80;99.90
42099;DHT22;27758;55.900;8.516;2023-03-01T18:10:39;3.80;99.90
42099;DHT22;27758;55.900;8.516;2023-03-01T18:13:05;3.80;99.90